Terminal Aerodrome Forecast
Issued by NWS

Home | Current Version | Previous Version | Text Only | Print | Product List | Glossary On
Versions: 1 2 3 4 5 6 7 8 9 10 11 12 13 14 15 16 17 18 19 20 21
000
FTAK31 PANC 192329
TAFADU
TAF
PADU 192329Z 2000/2024 13013KT P6SM -SHRA SCT025 BKN035 OVC050
     FM200400 11011KT 6SM -RA BR BKN018 OVC025
     FM201500 04010G18KT 6SM -RA BR OVC015
     FM202000 36018G26KT P6SM -SHRA BKN025=

USA.gov is the U.S. government's official web portal to all federal, state and local government web resources and services.